sensor_id;sensor_type;location;lat;lon;timestamp;P1;durP1;ratioP1;P2;durP2;ratioP2
12171;SDS011;6149;52.418;13.668;2022-08-04T00:00:27;6.43;;;5.83;;
12171;SDS011;6149;52.418;13.668;2022-08-04T00:02:58;7.47;;;6.37;;
12171;SDS011;6149;52.418;13.668;2022-08-04T00:05:41;6.50;;;5.90;;
12171;SDS011;6149;52.418;13.668;2022-08-04T00:08:20;6.47;;;5.80;;
12171;SDS011;6149;52.418;13.668;2022-08-04T00:11:00;6.70;;;6.07;;
12171;SDS011;6149;52.418;13.668;2022-08-04T00:13:29;6.73;;;5.73;;
12171;SDS011;6149;52.418;13.668;2022-08-04T00:16:01;5.33;;;4.93;;
12171;SDS011;6149;52.418;13.668;2022-08-04T00:18:33;6.00;;;5.53;;
12171;SDS011;6149;52.418;13.668;2022-08-04T00:21:05;6.47;;;5.87;;
12171;SDS011;6149;52.418;13.668;2022-08-04T00:23:35;6.83;;;6.23;;
12171;SDS011;6149;52.418;13.668;2022-08-04T00:26:05;7.23;;;5.40;;
12171;SDS011;6149;52.418;13.668;2022-08-04T00:28:34;5.87;;;5.40;;
12171;SDS011;6149;52.418;13.668;2022-08-04T00:31:01;5.97;;;5.47;;
12171;SDS011;6149;52.418;13.668;2022-08-04T00:33:28;6.10;;;5.50;;
12171;SDS011;6149;52.418;13.668;2022-08-04T00:35:55;5.90;;;5.47;;
12171;SDS011;6149;52.418;13.668;2022-08-04T00:38:23;6.20;;;5.70;;
12171;SDS011;6149;52.418;13.668;2022-08-04T00:40:52;6.90;;;5.60;;
12171;SDS011;6149;52.418;13.668;2022-08-04T00:43:34;6.03;;;5.53;;
12171;SDS011;6149;52.418;13.668;2022-08-04T00:46:25;6.23;;;5.73;;
12171;SDS011;6149;52.418;13.668;2022-08-04T00:49:13;6.53;;;5.83;;
12171;SDS011;6149;52.418;13.668;2022-08-04T00:52:17;5.90;;;5.50;;
12171;SDS011;6149;52.418;13.668;2022-08-04T00:55:10;6.37;;;5.87;;
12171;SDS011;6149;52.418;13.668;2022-08-04T00:57:54;6.10;;;5.60;;
12171;SDS011;6149;52.418;13.668;2022-08-04T01:00:41;6.60;;;6.00;;
12171;SDS011;6149;52.418;13.668;2022-08-04T01:03:22;6.47;;;5.87;;
12171;SDS011;6149;52.418;13.668;2022-08-04T01:06:04;7.83;;;5.63;;
12171;SDS011;6149;52.418;13.668;2022-08-04T01:08:48;6.13;;;5.53;;
12171;SDS011;6149;52.418;13.668;2022-08-04T01:11:36;5.80;;;5.37;;
12171;SDS011;6149;52.418;13.668;2022-08-04T01:14:25;6.17;;;5.67;;
12171;SDS011;6149;52.418;13.668;2022-08-04T01:17:11;6.70;;;5.87;;
12171;SDS011;6149;52.418;13.668;2022-08-04T01:19:53;6.30;;;5.70;;
12171;SDS011;6149;52.418;13.668;2022-08-04T01:22:44;6.57;;;5.97;;
12171;SDS011;6149;52.418;13.668;2022-08-04T01:25:45;6.40;;;5.90;;
12171;SDS011;6149;52.418;13.668;2022-08-04T01:31:29;6.10;;;5.37;;
12171;SDS011;6149;52.418;13.668;2022-08-04T01:34:04;6.40;;;5.90;;
12171;SDS011;6149;52.418;13.668;2022-08-04T01:36:37;7.37;;;6.10;;
12171;SDS011;6149;52.418;13.668;2022-08-04T01:39:11;6.33;;;5.83;;
12171;SDS011;6149;52.418;13.668;2022-08-04T01:41:56;8.07;;;5.83;;
12171;SDS011;6149;52.418;13.668;2022-08-04T01:44:27;6.23;;;5.73;;
12171;SDS011;6149;52.418;13.668;2022-08-04T01:46:54;6.20;;;5.60;;
12171;SDS011;6149;52.418;13.668;2022-08-04T01:49:21;6.57;;;6.07;;
12171;SDS011;6149;52.418;13.668;2022-08-04T01:51:53;6.23;;;5.73;;
12171;SDS011;6149;52.418;13.668;2022-08-04T01:54:22;6.00;;;5.40;;
12171;SDS011;6149;52.418;13.668;2022-08-04T01:56:49;6.37;;;5.90;;
12171;SDS011;6149;52.418;13.668;2022-08-04T01:59:17;5.70;;;5.30;;
12171;SDS011;6149;52.418;13.668;2022-08-04T02:01:46;6.13;;;5.63;;
12171;SDS011;6149;52.418;13.668;2022-08-04T02:04:13;6.43;;;5.73;;
12171;SDS011;6149;52.418;13.668;2022-08-04T02:06:48;6.83;;;6.13;;
12171;SDS011;6149;52.418;13.668;2022-08-04T02:09:29;5.97;;;5.50;;
12171;SDS011;6149;52.418;13.668;2022-08-04T02:12:04;5.93;;;5.53;;
12171;SDS011;6149;52.418;13.668;2022-08-04T02:14:44;6.43;;;5.83;;
12171;SDS011;6149;52.418;13.668;2022-08-04T02:17:21;6.57;;;5.97;;
12171;SDS011;6149;52.418;13.668;2022-08-04T02:19:59;7.37;;;6.70;;
12171;SDS011;6149;52.418;13.668;2022-08-04T02:22:32;8.20;;;7.00;;
12171;SDS011;6149;52.418;13.668;2022-08-04T02:25:04;6.67;;;6.17;;
12171;SDS011;6149;52.418;13.668;2022-08-04T02:27:39;7.40;;;6.67;;
12171;SDS011;6149;52.418;13.668;2022-08-04T02:30:20;7.37;;;6.30;;
12171;SDS011;6149;52.418;13.668;2022-08-04T02:32:55;7.37;;;6.67;;
12171;SDS011;6149;52.418;13.668;2022-08-04T02:35:28;6.87;;;6.27;;
12171;SDS011;6149;52.418;13.668;2022-08-04T02:38:06;6.77;;;6.10;;
12171;SDS011;6149;52.418;13.668;2022-08-04T02:40:41;6.43;;;5.90;;
12171;SDS011;6149;52.418;13.668;2022-08-04T02:43:08;7.03;;;6.37;;
12171;SDS011;6149;52.418;13.668;2022-08-04T02:45:35;6.87;;;6.27;;
12171;SDS011;6149;52.418;13.668;2022-08-04T02:48:04;7.33;;;6.73;;
12171;SDS011;6149;52.418;13.668;2022-08-04T02:50:34;7.93;;;7.10;;
12171;SDS011;6149;52.418;13.668;2022-08-04T02:53:02;7.57;;;6.80;;
12171;SDS011;6149;52.418;13.668;2022-08-04T02:55:31;8.13;;;7.37;;
12171;SDS011;6149;52.418;13.668;2022-08-04T02:57:58;7.50;;;6.90;;
12171;SDS011;6149;52.418;13.668;2022-08-04T03:00:29;7.53;;;6.93;;
12171;SDS011;6149;52.418;13.668;2022-08-04T03:02:59;9.43;;;7.70;;
12171;SDS011;6149;52.418;13.668;2022-08-04T03:05:46;8.83;;;7.93;;
12171;SDS011;6149;52.418;13.668;2022-08-04T03:08:46;8.77;;;7.70;;
12171;SDS011;6149;52.418;13.668;2022-08-04T03:11:51;8.90;;;7.90;;
12171;SDS011;6149;52.418;13.668;2022-08-04T03:15:06;13.77;;;8.53;;
12171;SDS011;6149;52.418;13.668;2022-08-04T03:18:29;9.60;;;7.90;;
12171;SDS011;6149;52.418;13.668;2022-08-04T03:21:21;8.33;;;7.47;;
12171;SDS011;6149;52.418;13.668;2022-08-04T03:24:35;11.67;;;7.93;;
12171;SDS011;6149;52.418;13.668;2022-08-04T03:31:09;8.20;;;7.37;;
12171;SDS011;6149;52.418;13.668;2022-08-04T03:34:12;8.70;;;7.87;;
12171;SDS011;6149;52.418;13.668;2022-08-04T03:43:31;8.43;;;7.70;;
12171;SDS011;6149;52.418;13.668;2022-08-04T03:46:53;8.60;;;7.90;;
12171;SDS011;6149;52.418;13.668;2022-08-04T03:49:48;9.00;;;8.20;;
12171;SDS011;6149;52.418;13.668;2022-08-04T03:56:06;8.93;;;8.10;;
12171;SDS011;6149;52.418;13.668;2022-08-04T03:59:00;8.43;;;7.53;;
12171;SDS011;6149;52.418;13.668;2022-08-04T04:01:55;8.27;;;7.47;;
12171;SDS011;6149;52.418;13.668;2022-08-04T04:04:45;8.40;;;7.60;;
12171;SDS011;6149;52.418;13.668;2022-08-04T04:11:00;7.50;;;7.00;;
12171;SDS011;6149;52.418;13.668;2022-08-04T04:14:10;7.27;;;6.70;;
12171;SDS011;6149;52.418;13.668;2022-08-04T04:16:59;8.90;;;8.00;;
12171;SDS011;6149;52.418;13.668;2022-08-04T04:19:49;7.90;;;7.27;;
12171;SDS011;6149;52.418;13.668;2022-08-04T04:22:29;7.50;;;6.87;;
12171;SDS011;6149;52.418;13.668;2022-08-04T04:25:24;8.00;;;7.20;;
12171;SDS011;6149;52.418;13.668;2022-08-04T04:28:10;8.57;;;7.77;;
12171;SDS011;6149;52.418;13.668;2022-08-04T04:31:15;11.07;;;8.03;;
12171;SDS011;6149;52.418;13.668;2022-08-04T04:34:04;19.07;;;8.57;;
12171;SDS011;6149;52.418;13.668;2022-08-04T04:36:52;9.87;;;8.13;;
12171;SDS011;6149;52.418;13.668;2022-08-04T04:39:42;9.30;;;8.50;;
12171;SDS011;6149;52.418;13.668;2022-08-04T04:42:29;11.43;;;9.00;;
12171;SDS011;6149;52.418;13.668;2022-08-04T04:45:14;9.70;;;8.77;;
12171;SDS011;6149;52.418;13.668;2022-08-04T04:47:53;10.90;;;9.70;;
12171;SDS011;6149;52.418;13.668;2022-08-04T04:50:27;9.90;;;8.53;;
12171;SDS011;6149;52.418;13.668;2022-08-04T04:53:11;10.33;;;8.27;;
12171;SDS011;6149;52.418;13.668;2022-08-04T04:55:46;10.17;;;9.17;;
12171;SDS011;6149;52.418;13.668;2022-08-04T04:58:19;10.50;;;9.50;;
12171;SDS011;6149;52.418;13.668;2022-08-04T05:00:56;11.47;;;9.70;;
12171;SDS011;6149;52.418;13.668;2022-08-04T05:03:50;11.17;;;9.77;;
12171;SDS011;6149;52.418;13.668;2022-08-04T05:06:44;9.93;;;9.03;;
12171;SDS011;6149;52.418;13.668;2022-08-04T05:09:39;11.00;;;10.00;;
12171;SDS011;6149;52.418;13.668;2022-08-04T05:12:35;9.37;;;8.57;;
12171;SDS011;6149;52.418;13.668;2022-08-04T05:15:18;10.63;;;9.57;;
12171;SDS011;6149;52.418;13.668;2022-08-04T05:17:52;10.40;;;9.47;;
12171;SDS011;6149;52.418;13.668;2022-08-04T05:20:21;10.73;;;9.83;;
12171;SDS011;6149;52.418;13.668;2022-08-04T05:22:52;10.90;;;9.90;;
12171;SDS011;6149;52.418;13.668;2022-08-04T05:25:27;10.13;;;9.33;;
12171;SDS011;6149;52.418;13.668;2022-08-04T05:28:02;10.30;;;9.33;;
12171;SDS011;6149;52.418;13.668;2022-08-04T05:30:37;11.30;;;10.27;;
12171;SDS011;6149;52.418;13.668;2022-08-04T05:33:12;10.23;;;9.33;;
12171;SDS011;6149;52.418;13.668;2022-08-04T05:35:43;10.80;;;9.77;;
12171;SDS011;6149;52.418;13.668;2022-08-04T05:38:16;9.43;;;8.57;;
12171;SDS011;6149;52.418;13.668;2022-08-04T05:40:49;9.47;;;8.67;;
12171;SDS011;6149;52.418;13.668;2022-08-04T05:43:18;9.83;;;8.90;;
12171;SDS011;6149;52.418;13.668;2022-08-04T05:45:45;9.00;;;8.30;;
12171;SDS011;6149;52.418;13.668;2022-08-04T05:48:14;9.80;;;8.80;;
12171;SDS011;6149;52.418;13.668;2022-08-04T05:50:41;12.23;;;9.00;;
12171;SDS011;6149;52.418;13.668;2022-08-04T05:53:08;10.03;;;9.03;;
12171;SDS011;6149;52.418;13.668;2022-08-04T05:55:36;9.53;;;8.63;;
12171;SDS011;6149;52.418;13.668;2022-08-04T05:58:04;9.47;;;8.57;;
12171;SDS011;6149;52.418;13.668;2022-08-04T06:00:31;7.73;;;7.10;;
12171;SDS011;6149;52.418;13.668;2022-08-04T06:03:01;8.50;;;7.80;;
12171;SDS011;6149;52.418;13.668;2022-08-04T06:05:28;9.43;;;8.50;;
12171;SDS011;6149;52.418;13.668;2022-08-04T06:07:55;8.57;;;7.87;;
12171;SDS011;6149;52.418;13.668;2022-08-04T06:10:21;7.83;;;7.23;;
12171;SDS011;6149;52.418;13.668;2022-08-04T06:12:51;8.70;;;7.80;;
12171;SDS011;6149;52.418;13.668;2022-08-04T06:15:22;9.50;;;8.60;;
12171;SDS011;6149;52.418;13.668;2022-08-04T06:17:52;8.33;;;7.63;;
12171;SDS011;6149;52.418;13.668;2022-08-04T06:20:25;8.80;;;7.97;;
12171;SDS011;6149;52.418;13.668;2022-08-04T06:22:54;7.83;;;6.93;;
12171;SDS011;6149;52.418;13.668;2022-08-04T06:25:25;7.87;;;7.17;;
12171;SDS011;6149;52.418;13.668;2022-08-04T06:27:56;8.60;;;7.70;;
12171;SDS011;6149;52.418;13.668;2022-08-04T06:30:25;8.50;;;7.80;;
12171;SDS011;6149;52.418;13.668;2022-08-04T06:32:56;8.93;;;7.10;;
12171;SDS011;6149;52.418;13.668;2022-08-04T06:35:27;7.67;;;7.07;;
12171;SDS011;6149;52.418;13.668;2022-08-04T06:37:55;6.93;;;6.43;;
12171;SDS011;6149;52.418;13.668;2022-08-04T06:40:23;7.73;;;7.03;;
12171;SDS011;6149;52.418;13.668;2022-08-04T06:42:50;7.40;;;6.70;;
12171;SDS011;6149;52.418;13.668;2022-08-04T06:45:18;8.50;;;6.40;;
12171;SDS011;6149;52.418;13.668;2022-08-04T06:47:46;7.67;;;6.10;;
12171;SDS011;6149;52.418;13.668;2022-08-04T06:50:14;6.50;;;6.00;;
12171;SDS011;6149;52.418;13.668;2022-08-04T06:52:43;6.53;;;5.60;;
12171;SDS011;6149;52.418;13.668;2022-08-04T06:55:10;7.80;;;6.10;;
12171;SDS011;6149;52.418;13.668;2022-08-04T06:57:38;6.63;;;6.13;;
12171;SDS011;6149;52.418;13.668;2022-08-04T07:00:08;8.87;;;6.30;;
12171;SDS011;6149;52.418;13.668;2022-08-04T07:02:38;8.47;;;6.20;;
12171;SDS011;6149;52.418;13.668;2022-08-04T07:05:10;7.23;;;6.60;;
12171;SDS011;6149;52.418;13.668;2022-08-04T07:07:38;6.90;;;6.23;;
12171;SDS011;6149;52.418;13.668;2022-08-04T07:10:06;6.67;;;6.17;;
12171;SDS011;6149;52.418;13.668;2022-08-04T07:12:34;7.20;;;6.57;;
12171;SDS011;6149;52.418;13.668;2022-08-04T07:15:05;6.83;;;6.13;;
12171;SDS011;6149;52.418;13.668;2022-08-04T07:17:34;6.97;;;6.37;;
12171;SDS011;6149;52.418;13.668;2022-08-04T07:20:02;8.23;;;5.77;;
12171;SDS011;6149;52.418;13.668;2022-08-04T07:22:32;6.97;;;5.87;;
12171;SDS011;6149;52.418;13.668;2022-08-04T07:25:00;6.60;;;6.00;;
12171;SDS011;6149;52.418;13.668;2022-08-04T07:27:26;6.67;;;6.07;;
12171;SDS011;6149;52.418;13.668;2022-08-04T07:29:53;6.43;;;5.80;;
12171;SDS011;6149;52.418;13.668;2022-08-04T07:32:21;6.20;;;5.70;;
12171;SDS011;6149;52.418;13.668;2022-08-04T07:34:48;6.90;;;6.17;;
12171;SDS011;6149;52.418;13.668;2022-08-04T07:37:16;7.93;;;5.77;;
12171;SDS011;6149;52.418;13.668;2022-08-04T07:39:45;6.77;;;5.53;;
12171;SDS011;6149;52.418;13.668;2022-08-04T07:42:12;5.40;;;4.90;;
12171;SDS011;6149;52.418;13.668;2022-08-04T07:44:38;6.10;;;5.60;;
12171;SDS011;6149;52.418;13.668;2022-08-04T07:47:05;6.27;;;5.67;;
12171;SDS011;6149;52.418;13.668;2022-08-04T07:49:33;6.03;;;5.53;;
12171;SDS011;6149;52.418;13.668;2022-08-04T07:52:00;6.10;;;5.50;;
12171;SDS011;6149;52.418;13.668;2022-08-04T07:54:28;7.13;;;5.60;;
12171;SDS011;6149;52.418;13.668;2022-08-04T07:56:56;6.13;;;5.50;;
12171;SDS011;6149;52.418;13.668;2022-08-04T07:59:22;5.73;;;5.10;;
12171;SDS011;6149;52.418;13.668;2022-08-04T08:01:49;9.07;;;5.57;;
12171;SDS011;6149;52.418;13.668;2022-08-04T08:04:17;5.93;;;5.43;;
12171;SDS011;6149;52.418;13.668;2022-08-04T08:06:44;5.40;;;4.90;;
12171;SDS011;6149;52.418;13.668;2022-08-04T08:09:11;5.90;;;5.40;;
12171;SDS011;6149;52.418;13.668;2022-08-04T08:11:40;7.83;;;5.63;;
12171;SDS011;6149;52.418;13.668;2022-08-04T08:14:09;7.07;;;5.57;;
12171;SDS011;6149;52.418;13.668;2022-08-04T08:16:36;5.43;;;4.93;;
12171;SDS011;6149;52.418;13.668;2022-08-04T08:19:03;11.33;;;5.23;;
12171;SDS011;6149;52.418;13.668;2022-08-04T08:21:31;5.33;;;4.77;;
12171;SDS011;6149;52.418;13.668;2022-08-04T08:23:59;5.00;;;4.60;;
12171;SDS011;6149;52.418;13.668;2022-08-04T08:26:26;6.77;;;5.30;;
12171;SDS011;6149;52.418;13.668;2022-08-04T08:28:52;6.27;;;4.80;;
12171;SDS011;6149;52.418;13.668;2022-08-04T08:31:20;5.20;;;4.70;;
12171;SDS011;6149;52.418;13.668;2022-08-04T08:33:48;4.67;;;4.30;;
12171;SDS011;6149;52.418;13.668;2022-08-04T08:36:17;6.70;;;4.90;;
12171;SDS011;6149;52.418;13.668;2022-08-04T08:38:51;5.13;;;4.70;;
12171;SDS011;6149;52.418;13.668;2022-08-04T08:41:40;6.20;;;4.57;;
12171;SDS011;6149;52.418;13.668;2022-08-04T08:47:59;5.17;;;4.77;;
12171;SDS011;6149;52.418;13.668;2022-08-04T08:50:58;5.60;;;5.10;;
12171;SDS011;6149;52.418;13.668;2022-08-04T08:53:56;5.43;;;4.90;;
12171;SDS011;6149;52.418;13.668;2022-08-04T08:56:38;5.27;;;4.87;;
12171;SDS011;6149;52.418;13.668;2022-08-04T08:59:31;4.80;;;4.47;;
12171;SDS011;6149;52.418;13.668;2022-08-04T09:02:20;4.77;;;4.30;;
12171;SDS011;6149;52.418;13.668;2022-08-04T09:05:21;5.20;;;4.10;;
12171;SDS011;6149;52.418;13.668;2022-08-04T09:10:58;5.03;;;4.23;;
12171;SDS011;6149;52.418;13.668;2022-08-04T09:13:33;4.83;;;4.50;;
12171;SDS011;6149;52.418;13.668;2022-08-04T09:16:10;4.30;;;3.90;;
12171;SDS011;6149;52.418;13.668;2022-08-04T09:18:44;4.60;;;3.97;;
12171;SDS011;6149;52.418;13.668;2022-08-04T09:21:24;4.50;;;4.10;;
12171;SDS011;6149;52.418;13.668;2022-08-04T09:23:59;4.57;;;4.20;;
12171;SDS011;6149;52.418;13.668;2022-08-04T09:26:37;6.47;;;4.03;;
12171;SDS011;6149;52.418;13.668;2022-08-04T09:29:07;4.37;;;4.07;;
12171;SDS011;6149;52.418;13.668;2022-08-04T09:31:42;5.90;;;4.00;;
12171;SDS011;6149;52.418;13.668;2022-08-04T09:34:19;4.53;;;4.23;;
12171;SDS011;6149;52.418;13.668;2022-08-04T09:37:03;4.60;;;4.30;;
12171;SDS011;6149;52.418;13.668;2022-08-04T09:39:40;4.27;;;3.90;;
12171;SDS011;6149;52.418;13.668;2022-08-04T09:42:17;4.90;;;4.40;;
12171;SDS011;6149;52.418;13.668;2022-08-04T09:44:51;4.70;;;4.30;;
12171;SDS011;6149;52.418;13.668;2022-08-04T09:47:30;4.57;;;4.17;;
12171;SDS011;6149;52.418;13.668;2022-08-04T09:50:06;5.43;;;4.00;;
12171;SDS011;6149;52.418;13.668;2022-08-04T09:52:45;4.00;;;3.70;;
12171;SDS011;6149;52.418;13.668;2022-08-04T09:55:29;4.30;;;4.00;;
12171;SDS011;6149;52.418;13.668;2022-08-04T09:58:07;5.33;;;4.20;;
12171;SDS011;6149;52.418;13.668;2022-08-04T10:00:47;4.60;;;4.20;;
12171;SDS011;6149;52.418;13.668;2022-08-04T10:03:21;4.30;;;3.97;;
12171;SDS011;6149;52.418;13.668;2022-08-04T10:05:55;4.30;;;4.00;;
12171;SDS011;6149;52.418;13.668;2022-08-04T10:08:41;4.30;;;4.00;;
12171;SDS011;6149;52.418;13.668;2022-08-04T10:11:23;4.90;;;4.43;;
12171;SDS011;6149;52.418;13.668;2022-08-04T10:14:05;4.60;;;4.13;;
12171;SDS011;6149;52.418;13.668;2022-08-04T10:16:46;4.78;;;4.38;;
12171;SDS011;6149;52.418;13.668;2022-08-04T10:19:25;6.03;;;4.10;;
12171;SDS011;6149;52.418;13.668;2022-08-04T10:22:00;3.43;;;3.23;;
12171;SDS011;6149;52.418;13.668;2022-08-04T10:24:41;5.90;;;3.83;;
12171;SDS011;6149;52.418;13.668;2022-08-04T10:27:21;4.77;;;3.17;;
12171;SDS011;6149;52.418;13.668;2022-08-04T10:29:53;3.70;;;3.40;;
12171;SDS011;6149;52.418;13.668;2022-08-04T10:32:39;4.13;;;3.73;;
12171;SDS011;6149;52.418;13.668;2022-08-04T10:35:10;4.43;;;3.37;;
12171;SDS011;6149;52.418;13.668;2022-08-04T10:37:42;5.03;;;3.67;;
12171;SDS011;6149;52.418;13.668;2022-08-04T10:40:18;4.40;;;3.27;;
12171;SDS011;6149;52.418;13.668;2022-08-04T10:43:02;3.90;;;2.80;;
12171;SDS011;6149;52.418;13.668;2022-08-04T10:45:38;3.47;;;3.17;;
12171;SDS011;6149;52.418;13.668;2022-08-04T10:48:12;3.60;;;3.30;;
12171;SDS011;6149;52.418;13.668;2022-08-04T10:50:50;4.57;;;3.17;;
12171;SDS011;6149;52.418;13.668;2022-08-04T10:53:28;4.07;;;3.67;;
12171;SDS011;6149;52.418;13.668;2022-08-04T10:56:01;3.60;;;3.13;;
12171;SDS011;6149;52.418;13.668;2022-08-04T10:58:32;4.63;;;3.30;;
12171;SDS011;6149;52.418;13.668;2022-08-04T11:01:08;3.50;;;3.20;;
12171;SDS011;6149;52.418;13.668;2022-08-04T11:03:55;4.80;;;3.53;;
12171;SDS011;6149;52.418;13.668;2022-08-04T11:06:26;4.17;;;3.23;;
12171;SDS011;6149;52.418;13.668;2022-08-04T11:08:54;3.47;;;3.27;;
12171;SDS011;6149;52.418;13.668;2022-08-04T11:11:25;5.73;;;3.00;;
12171;SDS011;6149;52.418;13.668;2022-08-04T11:13:59;4.47;;;3.33;;
12171;SDS011;6149;52.418;13.668;2022-08-04T11:16:30;4.00;;;3.60;;
12171;SDS011;6149;52.418;13.668;2022-08-04T11:19:06;5.07;;;3.20;;
12171;SDS011;6149;52.418;13.668;2022-08-04T11:21:45;3.40;;;3.10;;
12171;SDS011;6149;52.418;13.668;2022-08-04T11:24:21;3.60;;;3.30;;
12171;SDS011;6149;52.418;13.668;2022-08-04T11:26:57;4.07;;;3.47;;
12171;SDS011;6149;52.418;13.668;2022-08-04T11:29:28;4.30;;;3.27;;
12171;SDS011;6149;52.418;13.668;2022-08-04T11:32:12;4.07;;;3.43;;
12171;SDS011;6149;52.418;13.668;2022-08-04T11:34:46;4.43;;;3.80;;
12171;SDS011;6149;52.418;13.668;2022-08-04T11:37:19;5.43;;;3.30;;
12171;SDS011;6149;52.418;13.668;2022-08-04T11:39:50;4.13;;;3.50;;
12171;SDS011;6149;52.418;13.668;2022-08-04T11:42:22;3.83;;;3.30;;
12171;SDS011;6149;52.418;13.668;2022-08-04T11:44:54;4.73;;;3.93;;
12171;SDS011;6149;52.418;13.668;2022-08-04T11:47:28;4.03;;;3.60;;
12171;SDS011;6149;52.418;13.668;2022-08-04T11:50:01;3.43;;;3.13;;
12171;SDS011;6149;52.418;13.668;2022-08-04T11:52:33;4.33;;;3.10;;
12171;SDS011;6149;52.418;13.668;2022-08-04T11:55:04;3.67;;;3.27;;
12171;SDS011;6149;52.418;13.668;2022-08-04T11:57:37;3.53;;;3.20;;
12171;SDS011;6149;52.418;13.668;2022-08-04T12:00:05;3.47;;;3.20;;
12171;SDS011;6149;52.418;13.668;2022-08-04T12:02:46;4.53;;;3.27;;
12171;SDS011;6149;52.418;13.668;2022-08-04T12:05:26;3.87;;;2.90;;
12171;SDS011;6149;52.418;13.668;2022-08-04T12:07:59;3.60;;;2.90;;
12171;SDS011;6149;52.418;13.668;2022-08-04T12:10:40;3.60;;;2.87;;
12171;SDS011;6149;52.418;13.668;2022-08-04T12:13:19;3.73;;;3.20;;
12171;SDS011;6149;52.418;13.668;2022-08-04T12:15:56;3.97;;;3.20;;
12171;SDS011;6149;52.418;13.668;2022-08-04T12:18:32;4.10;;;2.87;;
12171;SDS011;6149;52.418;13.668;2022-08-04T12:21:04;3.30;;;3.00;;
12171;SDS011;6149;52.418;13.668;2022-08-04T12:23:35;3.40;;;3.10;;
12171;SDS011;6149;52.418;13.668;2022-08-04T12:26:04;3.60;;;3.30;;
12171;SDS011;6149;52.418;13.668;2022-08-04T12:28:38;3.40;;;3.10;;
12171;SDS011;6149;52.418;13.668;2022-08-04T12:31:09;3.20;;;3.00;;
12171;SDS011;6149;52.418;13.668;2022-08-04T12:33:46;3.50;;;3.20;;
12171;SDS011;6149;52.418;13.668;2022-08-04T12:36:20;5.33;;;3.57;;
12171;SDS011;6149;52.418;13.668;2022-08-04T12:38:56;5.63;;;3.37;;
12171;SDS011;6149;52.418;13.668;2022-08-04T12:41:31;5.80;;;3.30;;
12171;SDS011;6149;52.418;13.668;2022-08-04T12:44:08;3.77;;;3.20;;
12171;SDS011;6149;52.418;13.668;2022-08-04T12:46:37;6.20;;;3.53;;
12171;SDS011;6149;52.418;13.668;2022-08-04T12:49:10;3.87;;;3.30;;
12171;SDS011;6149;52.418;13.668;2022-08-04T12:51:38;14.47;;;4.40;;
12171;SDS011;6149;52.418;13.668;2022-08-04T12:54:08;3.93;;;3.13;;
12171;SDS011;6149;52.418;13.668;2022-08-04T12:56:37;5.33;;;3.23;;
12171;SDS011;6149;52.418;13.668;2022-08-04T12:59:07;4.07;;;3.50;;
12171;SDS011;6149;52.418;13.668;2022-08-04T13:01:38;3.53;;;3.23;;
12171;SDS011;6149;52.418;13.668;2022-08-04T13:04:11;4.67;;;3.30;;
12171;SDS011;6149;52.418;13.668;2022-08-04T13:06:41;4.97;;;3.50;;
12171;SDS011;6149;52.418;13.668;2022-08-04T13:09:10;3.60;;;3.30;;
12171;SDS011;6149;52.418;13.668;2022-08-04T13:11:43;4.60;;;3.43;;
12171;SDS011;6149;52.418;13.668;2022-08-04T13:14:21;3.80;;;3.50;;
12171;SDS011;6149;52.418;13.668;2022-08-04T13:16:55;3.60;;;3.27;;
12171;SDS011;6149;52.418;13.668;2022-08-04T13:19:23;5.60;;;3.40;;
12171;SDS011;6149;52.418;13.668;2022-08-04T13:21:50;3.93;;;3.47;;
12171;SDS011;6149;52.418;13.668;2022-08-04T13:24:19;3.67;;;3.03;;
12171;SDS011;6149;52.418;13.668;2022-08-04T13:26:49;4.03;;;3.30;;
12171;SDS011;6149;52.418;13.668;2022-08-04T13:29:23;4.63;;;3.40;;
12171;SDS011;6149;52.418;13.668;2022-08-04T13:31:58;3.47;;;3.20;;
12171;SDS011;6149;52.418;13.668;2022-08-04T13:34:26;4.00;;;3.13;;
12171;SDS011;6149;52.418;13.668;2022-08-04T13:36:54;3.27;;;2.97;;
12171;SDS011;6149;52.418;13.668;2022-08-04T13:39:22;3.20;;;2.90;;
12171;SDS011;6149;52.418;13.668;2022-08-04T13:41:50;3.87;;;3.30;;
12171;SDS011;6149;52.418;13.668;2022-08-04T13:44:21;3.07;;;2.87;;
12171;SDS011;6149;52.418;13.668;2022-08-04T13:46:54;3.50;;;3.20;;
12171;SDS011;6149;52.418;13.668;2022-08-04T13:49:23;3.60;;;3.27;;
12171;SDS011;6149;52.418;13.668;2022-08-04T13:51:51;4.73;;;3.27;;
12171;SDS011;6149;52.418;13.668;2022-08-04T13:54:21;4.00;;;3.27;;
12171;SDS011;6149;52.418;13.668;2022-08-04T13:56:49;3.80;;;3.40;;
12171;SDS011;6149;52.418;13.668;2022-08-04T13:59:21;3.73;;;3.50;;
12171;SDS011;6149;52.418;13.668;2022-08-04T14:01:57;3.90;;;3.30;;
12171;SDS011;6149;52.418;13.668;2022-08-04T14:04:29;6.77;;;3.77;;
12171;SDS011;6149;52.418;13.668;2022-08-04T14:07:01;4.87;;;3.30;;
12171;SDS011;6149;52.418;13.668;2022-08-04T14:09:34;4.63;;;3.60;;
12171;SDS011;6149;52.418;13.668;2022-08-04T14:12:05;3.73;;;3.20;;
12171;SDS011;6149;52.418;13.668;2022-08-04T14:14:36;6.00;;;3.30;;
12171;SDS011;6149;52.418;13.668;2022-08-04T14:17:12;5.57;;;3.40;;
12171;SDS011;6149;52.418;13.668;2022-08-04T14:19:46;3.33;;;2.97;;
12171;SDS011;6149;52.418;13.668;2022-08-04T14:22:27;3.30;;;3.07;;
12171;SDS011;6149;52.418;13.668;2022-08-04T14:25:00;3.43;;;3.17;;
12171;SDS011;6149;52.418;13.668;2022-08-04T14:27:39;3.23;;;3.03;;
12171;SDS011;6149;52.418;13.668;2022-08-04T14:30:23;4.30;;;3.07;;
12171;SDS011;6149;52.418;13.668;2022-08-04T14:32:52;3.20;;;2.90;;
12171;SDS011;6149;52.418;13.668;2022-08-04T14:35:21;3.60;;;3.30;;
12171;SDS011;6149;52.418;13.668;2022-08-04T14:37:51;3.50;;;2.73;;
12171;SDS011;6149;52.418;13.668;2022-08-04T14:40:21;3.10;;;2.90;;
12171;SDS011;6149;52.418;13.668;2022-08-04T14:42:50;3.50;;;3.20;;
12171;SDS011;6149;52.418;13.668;2022-08-04T14:45:16;3.20;;;3.00;;
12171;SDS011;6149;52.418;13.668;2022-08-04T14:47:46;3.43;;;3.10;;
12171;SDS011;6149;52.418;13.668;2022-08-04T14:50:13;3.20;;;2.90;;
12171;SDS011;6149;52.418;13.668;2022-08-04T14:52:42;4.47;;;2.87;;
12171;SDS011;6149;52.418;13.668;2022-08-04T14:55:15;3.70;;;3.10;;
12171;SDS011;6149;52.418;13.668;2022-08-04T14:57:46;3.10;;;2.87;;
12171;SDS011;6149;52.418;13.668;2022-08-04T15:00:23;3.47;;;2.70;;
12171;SDS011;6149;52.418;13.668;2022-08-04T15:02:52;5.80;;;2.63;;
12171;SDS011;6149;52.418;13.668;2022-08-04T15:05:26;3.47;;;3.27;;
12171;SDS011;6149;52.418;13.668;2022-08-04T15:07:55;3.17;;;2.97;;
12171;SDS011;6149;52.418;13.668;2022-08-04T15:10:21;4.17;;;3.10;;
12171;SDS011;6149;52.418;13.668;2022-08-04T15:12:48;2.90;;;2.70;;
12171;SDS011;6149;52.418;13.668;2022-08-04T15:15:15;4.33;;;2.90;;
12171;SDS011;6149;52.418;13.668;2022-08-04T15:17:42;3.17;;;2.90;;
12171;SDS011;6149;52.418;13.668;2022-08-04T15:20:11;3.00;;;2.80;;
12171;SDS011;6149;52.418;13.668;2022-08-04T15:22:38;3.07;;;2.87;;
12171;SDS011;6149;52.418;13.668;2022-08-04T15:25:05;3.00;;;2.80;;
12171;SDS011;6149;52.418;13.668;2022-08-04T15:27:33;2.80;;;2.60;;
12171;SDS011;6149;52.418;13.668;2022-08-04T15:30:03;3.43;;;3.13;;
12171;SDS011;6149;52.418;13.668;2022-08-04T15:32:33;2.77;;;2.57;;
12171;SDS011;6149;52.418;13.668;2022-08-04T15:35:03;3.77;;;2.80;;
12171;SDS011;6149;52.418;13.668;2022-08-04T15:37:38;4.57;;;2.83;;
12171;SDS011;6149;52.418;13.668;2022-08-04T15:40:15;3.37;;;3.07;;
12171;SDS011;6149;52.418;13.668;2022-08-04T15:42:46;2.70;;;2.50;;
12171;SDS011;6149;52.418;13.668;2022-08-04T15:45:18;2.97;;;2.77;;
12171;SDS011;6149;52.418;13.668;2022-08-04T15:51:00;3.13;;;2.90;;
12171;SDS011;6149;52.418;13.668;2022-08-04T15:56:48;4.47;;;2.80;;
12171;SDS011;6149;52.418;13.668;2022-08-04T15:59:18;3.27;;;3.07;;
12171;SDS011;6149;52.418;13.668;2022-08-04T16:02:37;2.90;;;2.70;;
12171;SDS011;6149;52.418;13.668;2022-08-04T16:08:00;3.47;;;2.70;;
12171;SDS011;6149;52.418;13.668;2022-08-04T16:10:35;4.60;;;2.87;;